createdAt,value
2018-06-29T00:02:44.452Z,58.60
2018-06-29T00:06:48.029Z,57.70
2018-06-29T00:10:51.571Z,58.20
2018-06-29T00:14:55.110Z,57.30
2018-06-29T00:18:58.691Z,57.40
2018-06-29T00:23:02.256Z,57.40
2018-06-29T00:27:06.026Z,58.70
2018-06-29T00:31:09.597Z,57.90
2018-06-29T00:35:13.375Z,59.20
2018-06-29T00:39:19.873Z,58.00
2018-06-29T00:43:23.467Z,58.70
2018-06-29T00:47:27.179Z,58.20
2018-06-29T00:51:30.740Z,58.10
2018-06-29T00:55:34.263Z,58.00
2018-06-29T00:59:37.859Z,57.90
2018-06-29T01:03:41.367Z,59.80
2018-06-29T01:07:45.226Z,58.40
2018-06-29T01:11:48.838Z,58.00
2018-06-29T01:15:52.434Z,58.80
2018-06-29T01:19:56.128Z,58.30
2018-06-29T01:23:59.715Z,58.90
2018-06-29T01:28:03.274Z,58.30
2018-06-29T01:32:06.878Z,58.90
2018-06-29T01:36:10.386Z,59.80
2018-06-29T01:40:14.756Z,58.30
2018-06-29T01:44:18.346Z,58.30
2018-06-29T01:48:22.196Z,57.80
2018-06-29T01:52:30.524Z,58.20
2018-06-29T02:00:37.350Z,58.70
2018-06-29T02:04:40.990Z,58.20
2018-06-29T02:08:44.639Z,58.40
2018-06-29T02:12:48.213Z,58.60
2018-06-29T02:16:51.828Z,59.40
2018-06-29T02:20:55.462Z,58.90
2018-06-29T02:24:59.012Z,60.20
2018-06-29T02:29:02.702Z,59.10
2018-06-29T02:33:06.361Z,59.50
2018-06-29T02:37:10.007Z,61.70
2018-06-29T02:41:13.582Z,62.10
2018-06-29T02:45:17.435Z,61.60
2018-06-29T02:49:21.016Z,62.40
2018-06-29T02:53:24.629Z,60.80
2018-06-29T02:57:28.175Z,61.90
2018-06-29T03:01:31.792Z,62.90
2018-06-29T03:05:35.344Z,62.30
2018-06-29T03:09:39.010Z,61.80
2018-06-29T03:13:42.599Z,62.20
2018-06-29T03:17:46.587Z,63.80
2018-06-29T03:21:50.182Z,63.90
2018-06-29T03:25:53.870Z,64.60
2018-06-29T03:34:00.663Z,62.70
2018-06-29T03:38:05.383Z,64.40
2018-06-29T03:42:08.950Z,64.50
2018-06-29T03:46:12.471Z,64.50
2018-06-29T03:50:16.079Z,65.50
2018-06-29T03:54:19.610Z,63.30
2018-06-29T03:58:23.158Z,63.60
2018-06-29T04:02:26.806Z,61.90
2018-06-29T04:06:30.371Z,60.60
2018-06-29T04:10:33.934Z,61.50
2018-06-29T04:14:37.707Z,62.80
2018-06-29T04:18:41.297Z,63.20
2018-06-29T04:22:45.255Z,62.70
2018-06-29T04:26:48.810Z,63.50
2018-06-29T04:31:09.615Z,63.50
2018-06-29T04:35:13.162Z,64.20
2018-06-29T04:39:16.767Z,63.00
2018-06-29T04:43:20.454Z,64.30
2018-06-29T04:47:23.988Z,64.50
2018-06-29T04:51:27.606Z,63.00
2018-06-29T04:55:31.353Z,62.00
2018-06-29T04:59:35.027Z,62.80
2018-06-29T05:03:38.597Z,61.20
2018-06-29T05:07:42.790Z,61.50
2018-06-29T05:11:46.414Z,61.00
2018-06-29T05:15:50.967Z,61.10
2018-06-29T05:19:54.518Z,61.70
2018-06-29T05:23:58.076Z,62.00
2018-06-29T05:28:01.648Z,62.10
2018-06-29T05:32:05.171Z,62.90
2018-06-29T05:36:08.938Z,63.50
2018-06-29T05:40:12.563Z,62.90
2018-06-29T05:44:16.191Z,60.80
2018-06-29T05:48:19.742Z,60.00
2018-06-29T05:52:26.817Z,60.00
2018-06-29T05:56:30.318Z,59.50
2018-06-29T06:00:33.963Z,58.90
2018-06-29T06:04:37.559Z,56.30
2018-06-29T06:08:41.159Z,55.80
2018-06-29T06:12:44.857Z,53.90
2018-06-29T06:16:48.567Z,52.70
2018-06-29T06:20:52.119Z,51.80
2018-06-29T06:28:59.437Z,48.80
2018-06-29T06:33:03.067Z,47.20
2018-06-29T06:37:07.622Z,50.20
2018-06-29T06:41:11.182Z,52.70
2018-06-29T06:45:15.843Z,46.00
2018-06-29T06:49:19.645Z,44.20
2018-06-29T06:53:23.212Z,45.20
2018-06-29T06:57:26.758Z,42.00
2018-06-29T07:01:30.502Z,42.00
2018-06-29T07:05:34.073Z,40.50
2018-06-29T07:09:49.826Z,40.50
2018-06-29T07:13:54.316Z,38.40
2018-06-29T07:17:58.466Z,36.50
2018-06-29T07:22:02.270Z,39.00
2018-06-29T07:26:05.966Z,38.60
2018-06-29T07:30:10.246Z,36.00
2018-06-29T07:34:13.819Z,35.20
2018-06-29T07:38:18.045Z,35.40
2018-06-29T07:42:21.880Z,38.50
2018-06-29T07:46:26.603Z,37.40
2018-06-29T07:50:30.132Z,37.00
2018-06-29T07:54:33.747Z,35.20
2018-06-29T07:58:37.350Z,35.40
2018-06-29T08:02:40.958Z,36.60
2018-06-29T08:10:49.222Z,36.20
2018-06-29T08:14:53.897Z,36.50
2018-06-29T08:18:58.537Z,36.30
2018-06-29T08:23:02.162Z,35.80
2018-06-29T08:27:05.746Z,36.10
2018-06-29T08:31:09.742Z,33.60
2018-06-29T08:35:13.378Z,33.60
2018-06-29T08:39:17.023Z,34.00
2018-06-29T08:43:20.751Z,32.20
2018-06-29T08:47:24.279Z,33.30
2018-06-29T08:51:27.861Z,35.30
2018-06-29T08:55:31.456Z,35.40
2018-06-29T08:59:35.156Z,33.90
2018-06-29T09:03:38.693Z,35.10
2018-06-29T09:07:43.398Z,34.40
2018-06-29T09:11:47.182Z,34.50
2018-06-29T09:15:50.747Z,34.80
2018-06-29T09:19:54.280Z,33.20
2018-06-29T09:23:58.095Z,32.70
2018-06-29T09:28:01.838Z,32.90
2018-06-29T09:32:06.038Z,33.00
2018-06-29T09:36:09.546Z,33.30
2018-06-29T09:40:13.241Z,34.70
2018-06-29T09:44:16.931Z,32.60
2018-06-29T09:48:20.442Z,32.40
2018-06-29T09:52:23.949Z,33.80
2018-06-29T09:56:28.132Z,33.70
2018-06-29T10:04:38.749Z,33.50
2018-06-29T10:08:44.634Z,34.60
2018-06-29T10:12:48.437Z,34.50
2018-06-29T10:16:52.045Z,36.80
2018-06-29T10:21:01.463Z,33.70
2018-06-29T10:25:05.019Z,32.90
2018-06-29T10:29:09.696Z,34.40
2018-06-29T10:33:13.367Z,34.20
2018-06-29T10:37:23.100Z,35.50
2018-06-29T10:41:26.749Z,34.80
2018-06-29T10:45:30.326Z,34.40
2018-06-29T10:49:34.235Z,35.30
2018-06-29T10:53:37.996Z,36.10
2018-06-29T10:57:41.675Z,36.70
2018-06-29T11:01:45.492Z,38.00
2018-06-29T11:05:49.119Z,37.30
2018-06-29T11:09:52.716Z,36.40
2018-06-29T11:13:56.230Z,35.40
2018-06-29T11:18:03.538Z,35.80
2018-06-29T11:22:07.190Z,37.40
2018-06-29T11:26:10.759Z,36.40
2018-06-29T11:30:14.509Z,34.50
2018-06-29T11:34:18.122Z,36.40
2018-06-29T11:42:28.496Z,43.20
2018-06-29T11:46:37.622Z,40.70
2018-06-29T11:50:41.175Z,35.60
2018-06-29T11:54:44.763Z,35.80
2018-06-29T11:58:54.172Z,35.00
2018-06-29T12:02:57.699Z,34.40
2018-06-29T12:07:01.329Z,34.20
2018-06-29T12:11:04.908Z,36.70
2018-06-29T12:15:09.734Z,37.70
2018-06-29T12:19:13.395Z,36.70
2018-06-29T12:27:37.229Z,35.80
2018-06-29T12:31:47.862Z,38.50
2018-06-29T12:36:10.360Z,35.80
2018-06-29T12:40:14.123Z,37.70
2018-06-29T12:44:17.822Z,36.50
2018-06-29T12:48:21.418Z,35.10
2018-06-29T12:52:24.991Z,35.40
2018-06-29T12:56:31.914Z,35.30
2018-06-29T13:00:35.527Z,36.20
2018-06-29T13:04:44.869Z,36.00
2018-06-29T13:08:48.802Z,44.10
2018-06-29T13:12:55.007Z,44.60
2018-06-29T13:16:59.052Z,38.10
2018-06-29T13:21:03.603Z,37.70
2018-06-29T13:25:17.574Z,36.70
2018-06-29T13:33:40.648Z,37.90
2018-06-29T13:37:44.729Z,42.80
2018-06-29T13:41:49.989Z,39.30
2018-06-29T13:45:53.979Z,37.50
2018-06-29T13:50:01.824Z,37.70
2018-06-29T13:54:07.648Z,35.20
2018-06-29T13:58:12.552Z,35.90
2018-06-29T14:02:16.266Z,36.80
2018-06-29T14:06:19.961Z,35.70
2018-06-29T14:10:31.058Z,36.90
2018-06-29T14:14:37.968Z,38.50
2018-06-29T14:18:41.695Z,38.70
2018-06-29T14:22:46.537Z,38.70
2018-06-29T14:27:08.299Z,37.20
2018-06-29T14:31:17.360Z,44.60
2018-06-29T14:35:26.227Z,41.40
2018-06-29T14:39:32.394Z,37.70
2018-06-29T14:43:40.240Z,36.80
2018-06-29T14:47:45.358Z,35.80
2018-06-29T14:51:49.748Z,34.50
2018-06-29T14:55:54.903Z,34.40
2018-06-29T15:00:00.059Z,33.90
2018-06-29T15:04:05.425Z,34.20
2018-06-29T15:12:14.812Z,35.50
2018-06-29T15:16:26.613Z,33.80
2018-06-29T15:20:30.324Z,35.20
2018-06-29T15:24:35.028Z,35.50
2018-06-29T15:28:44.690Z,35.80
2018-06-29T15:32:50.324Z,34.30
2018-06-29T15:36:59.330Z,37.80
2018-06-29T15:41:03.135Z,34.20
2018-06-29T15:45:08.259Z,34.00
2018-06-29T15:49:15.560Z,32.80
2018-06-29T15:53:20.037Z,34.60
2018-06-29T15:57:25.813Z,34.00
2018-06-29T16:01:36.507Z,34.90
2018-06-29T16:05:40.118Z,37.50
2018-06-29T16:09:44.597Z,33.80
2018-06-29T16:13:49.287Z,38.50
2018-06-29T16:17:52.894Z,37.50
2018-06-29T16:21:57.520Z,33.70
2018-06-29T16:26:01.078Z,34.80
2018-06-29T16:30:05.152Z,36.60
2018-06-29T16:34:08.835Z,35.40
2018-06-29T16:38:12.572Z,36.50
2018-06-29T16:42:16.371Z,35.20
2018-06-29T16:46:20.043Z,35.40
2018-06-29T16:50:23.645Z,36.50
2018-06-29T16:54:27.223Z,35.70
2018-06-29T16:58:31.842Z,35.40
2018-06-29T17:02:35.664Z,41.60
2018-06-29T17:06:39.226Z,44.30
2018-06-29T17:10:42.909Z,37.30
2018-06-29T17:14:47.686Z,37.30
2018-06-29T17:18:51.326Z,36.30
2018-06-29T17:22:56.041Z,43.50
2018-06-29T17:26:59.559Z,36.00
2018-06-29T17:31:03.296Z,35.90
2018-06-29T17:35:07.112Z,35.50
2018-06-29T17:39:11.969Z,36.00
2018-06-29T17:43:15.654Z,39.10
2018-06-29T17:47:28.958Z,36.80
2018-06-29T17:51:33.663Z,43.70
2018-06-29T17:55:37.349Z,41.40
2018-06-29T17:59:41.017Z,48.70
2018-06-29T18:03:44.624Z,47.20
2018-06-29T18:07:48.218Z,46.80
2018-06-29T18:11:52.912Z,50.90
2018-06-29T18:15:56.584Z,51.50
2018-06-29T18:20:00.283Z,49.20
2018-06-29T18:24:03.862Z,51.70
2018-06-29T18:28:07.483Z,53.50
2018-06-29T18:32:11.031Z,48.70
2018-06-29T18:36:15.234Z,50.60
2018-06-29T18:40:22.619Z,51.90
2018-06-29T18:44:27.269Z,51.30
2018-06-29T18:48:30.848Z,50.10
2018-06-29T18:52:34.371Z,54.10
2018-06-29T18:56:38.046Z,53.90
2018-06-29T19:00:41.607Z,53.70
2018-06-29T19:04:45.779Z,55.30
2018-06-29T19:08:49.354Z,55.40
2018-06-29T19:12:53.078Z,52.90
2018-06-29T19:16:56.671Z,55.60
2018-06-29T19:21:00.282Z,54.60
2018-06-29T19:25:11.869Z,55.90
2018-06-29T19:29:15.771Z,55.70
2018-06-29T19:33:19.585Z,58.20
2018-06-29T19:37:23.061Z,53.20
2018-06-29T19:41:27.847Z,55.60
2018-06-29T19:45:32.442Z,56.50
2018-06-29T19:49:36.164Z,56.00
2018-06-29T19:53:46.112Z,53.70
2018-06-29T19:57:50.741Z,54.60
2018-06-29T20:01:55.616Z,54.10
2018-06-29T20:06:01.469Z,57.10
2018-06-29T20:10:05.452Z,55.60
2018-06-29T20:14:14.052Z,52.80
2018-06-29T20:18:21.115Z,54.10
2018-06-29T20:22:24.903Z,52.50
2018-06-29T20:26:28.667Z,54.00
2018-06-29T20:30:33.088Z,53.40
2018-06-29T20:34:42.304Z,54.30
2018-06-29T20:38:46.110Z,54.50
2018-06-29T20:42:57.526Z,54.50
2018-06-29T20:47:05.362Z,54.00
2018-06-29T20:51:10.108Z,53.80
2018-06-29T20:55:14.553Z,53.90
2018-06-29T20:59:28.590Z,54.40
2018-06-29T21:03:32.708Z,56.10
2018-06-29T21:07:36.387Z,55.60
2018-06-29T21:11:44.151Z,56.30
2018-06-29T21:15:47.754Z,55.60
2018-06-29T21:19:51.383Z,57.60
2018-06-29T21:27:58.940Z,56.90
2018-06-29T21:32:02.563Z,58.20
2018-06-29T21:36:07.791Z,57.90
2018-06-29T21:40:11.274Z,58.30
2018-06-29T21:44:17.138Z,58.50
2018-06-29T21:48:20.727Z,60.20
2018-06-29T21:52:24.302Z,58.40
2018-06-29T21:56:28.966Z,58.70
2018-06-29T22:00:38.394Z,59.20
2018-06-29T22:04:42.015Z,58.80
2018-06-29T22:08:45.664Z,59.00
2018-06-29T22:12:51.276Z,58.70
2018-06-29T22:16:54.950Z,58.50
2018-06-29T22:20:58.565Z,59.80
2018-06-29T22:25:03.519Z,58.90
2018-06-29T22:29:07.024Z,59.60
2018-06-29T22:33:10.559Z,59.20
2018-06-29T22:37:14.284Z,59.00
2018-06-29T22:41:18.252Z,59.50
2018-06-29T22:45:22.895Z,60.10
2018-06-29T22:49:26.837Z,60.30
2018-06-29T22:53:30.479Z,60.80
2018-06-29T22:57:34.089Z,61.90
2018-06-29T23:01:37.686Z,61.30
2018-06-29T23:05:41.220Z,61.90
2018-06-29T23:09:45.079Z,61.40
2018-06-29T23:13:48.911Z,61.70
2018-06-29T23:17:52.543Z,62.00
2018-06-29T23:22:01.055Z,62.00
2018-06-29T23:26:04.722Z,62.00
2018-06-29T23:30:08.265Z,61.80
2018-06-29T23:34:11.830Z,62.20
2018-06-29T23:38:16.230Z,61.70
2018-06-29T23:42:19.812Z,62.00
2018-06-29T23:46:23.563Z,62.60
2018-06-29T23:50:28.303Z,62.90
2018-06-29T23:54:37.727Z,63.60
2018-06-29T23:58:41.231Z,63.70
